sensor_id;sensor_type;location;lat;lon;timestamp;P1;durP1;ratioP1;P2;durP2;ratioP2
22837;SDS011;11585;51.450;-0.240;2023-04-06T00:00:25;22.95;;;11.20;;
22837;SDS011;11585;51.450;-0.240;2023-04-06T00:02:51;22.92;;;11.68;;
22837;SDS011;11585;51.450;-0.240;2023-04-06T00:07:47;22.00;;;10.85;;
22837;SDS011;11585;51.450;-0.240;2023-04-06T00:10:13;22.02;;;11.60;;
22837;SDS011;11585;51.450;-0.240;2023-04-06T00:12:40;19.33;;;10.88;;
22837;SDS011;11585;51.450;-0.240;2023-04-06T00:17:52;21.42;;;10.32;;
22837;SDS011;11585;51.450;-0.240;2023-04-06T00:20:18;19.85;;;9.98;;
22837;SDS011;11585;51.450;-0.240;2023-04-06T00:22:44;18.50;;;10.30;;
22837;SDS011;11585;51.450;-0.240;2023-04-06T00:25:11;20.20;;;10.13;;
22837;SDS011;11585;51.450;-0.240;2023-04-06T00:27:37;18.77;;;9.95;;
22837;SDS011;11585;51.450;-0.240;2023-04-06T00:30:06;19.30;;;9.82;;
22837;SDS011;11585;51.450;-0.240;2023-04-06T00:32:32;15.45;;;9.32;;
22837;SDS011;11585;51.450;-0.240;2023-04-06T00:35:02;18.55;;;9.98;;
22837;SDS011;11585;51.450;-0.240;2023-04-06T00:37:28;21.30;;;9.60;;
22837;SDS011;11585;51.450;-0.240;2023-04-06T00:39:53;20.70;;;9.60;;
22837;SDS011;11585;51.450;-0.240;2023-04-06T00:42:19;14.63;;;8.80;;
22837;SDS011;11585;51.450;-0.240;2023-04-06T00:44:56;18.00;;;9.75;;
22837;SDS011;11585;51.450;-0.240;2023-04-06T00:47:23;15.75;;;8.98;;
22837;SDS011;11585;51.450;-0.240;2023-04-06T00:49:53;16.90;;;8.95;;
22837;SDS011;11585;51.450;-0.240;2023-04-06T00:52:19;17.40;;;9.20;;
22837;SDS011;11585;51.450;-0.240;2023-04-06T00:58:07;15.05;;;8.43;;
22837;SDS011;11585;51.450;-0.240;2023-04-06T01:00:33;16.92;;;8.68;;
22837;SDS011;11585;51.450;-0.240;2023-04-06T01:02:59;14.63;;;8.80;;
22837;SDS011;11585;51.450;-0.240;2023-04-06T01:05:27;15.07;;;8.00;;
22837;SDS011;11585;51.450;-0.240;2023-04-06T01:07:52;15.98;;;9.15;;
22837;SDS011;11585;51.450;-0.240;2023-04-06T01:10:24;13.48;;;7.72;;
22837;SDS011;11585;51.450;-0.240;2023-04-06T01:12:51;15.02;;;8.02;;
22837;SDS011;11585;51.450;-0.240;2023-04-06T01:17:48;12.60;;;7.35;;
22837;SDS011;11585;51.450;-0.240;2023-04-06T01:20:14;14.77;;;8.30;;
22837;SDS011;11585;51.450;-0.240;2023-04-06T01:22:40;14.15;;;7.75;;
22837;SDS011;11585;51.450;-0.240;2023-04-06T01:27:52;13.65;;;7.85;;
22837;SDS011;11585;51.450;-0.240;2023-04-06T01:30:18;11.68;;;6.78;;
22837;SDS011;11585;51.450;-0.240;2023-04-06T01:32:44;11.80;;;6.05;;
22837;SDS011;11585;51.450;-0.240;2023-04-06T01:35:10;11.45;;;6.65;;
22837;SDS011;11585;51.450;-0.240;2023-04-06T01:37:36;8.88;;;5.93;;
22837;SDS011;11585;51.450;-0.240;2023-04-06T01:40:02;12.85;;;6.43;;
22837;SDS011;11585;51.450;-0.240;2023-04-06T01:42:28;10.60;;;6.07;;
22837;SDS011;11585;51.450;-0.240;2023-04-06T01:44:56;12.95;;;6.82;;
22837;SDS011;11585;51.450;-0.240;2023-04-06T01:47:21;10.00;;;6.18;;
22837;SDS011;11585;51.450;-0.240;2023-04-06T01:49:47;11.85;;;6.45;;
22837;SDS011;11585;51.450;-0.240;2023-04-06T01:52:13;11.75;;;6.43;;
22837;SDS011;11585;51.450;-0.240;2023-04-06T01:58:00;14.07;;;7.22;;
22837;SDS011;11585;51.450;-0.240;2023-04-06T02:00:26;13.23;;;6.63;;
22837;SDS011;11585;51.450;-0.240;2023-04-06T02:02:52;9.60;;;6.07;;
22837;SDS011;11585;51.450;-0.240;2023-04-06T02:07:46;12.40;;;7.03;;
22837;SDS011;11585;51.450;-0.240;2023-04-06T02:10:12;13.77;;;7.18;;
22837;SDS011;11585;51.450;-0.240;2023-04-06T02:12:38;10.30;;;6.28;;
22837;SDS011;11585;51.450;-0.240;2023-04-06T02:17:34;10.80;;;7.00;;
22837;SDS011;11585;51.450;-0.240;2023-04-06T02:20:00;13.85;;;7.30;;
22837;SDS011;11585;51.450;-0.240;2023-04-06T02:22:26;17.55;;;8.77;;
22837;SDS011;11585;51.450;-0.240;2023-04-06T02:27:56;14.88;;;6.78;;
22837;SDS011;11585;51.450;-0.240;2023-04-06T02:30:21;11.75;;;7.50;;
22837;SDS011;11585;51.450;-0.240;2023-04-06T02:32:47;11.60;;;6.75;;
22837;SDS011;11585;51.450;-0.240;2023-04-06T02:38:01;10.40;;;6.78;;
22837;SDS011;11585;51.450;-0.240;2023-04-06T02:40:26;12.57;;;6.55;;
22837;SDS011;11585;51.450;-0.240;2023-04-06T02:42:52;10.55;;;6.10;;
22837;SDS011;11585;51.450;-0.240;2023-04-06T02:45:20;9.77;;;6.15;;
22837;SDS011;11585;51.450;-0.240;2023-04-06T02:47:45;15.00;;;6.80;;
22837;SDS011;11585;51.450;-0.240;2023-04-06T02:50:11;12.73;;;6.45;;
22837;SDS011;11585;51.450;-0.240;2023-04-06T02:52:36;13.07;;;6.80;;
22837;SDS011;11585;51.450;-0.240;2023-04-06T02:55:03;9.15;;;6.15;;
22837;SDS011;11585;51.450;-0.240;2023-04-06T02:59:57;16.08;;;6.97;;
22837;SDS011;11585;51.450;-0.240;2023-04-06T03:02:22;12.32;;;6.65;;
22837;SDS011;11585;51.450;-0.240;2023-04-06T03:07:35;10.40;;;6.35;;
22837;SDS011;11585;51.450;-0.240;2023-04-06T03:10:01;10.35;;;6.20;;
22837;SDS011;11585;51.450;-0.240;2023-04-06T03:12:26;8.95;;;5.75;;
22837;SDS011;11585;51.450;-0.240;2023-04-06T03:17:57;10.85;;;6.10;;
22837;SDS011;11585;51.450;-0.240;2023-04-06T03:20:23;8.00;;;5.25;;
22837;SDS011;11585;51.450;-0.240;2023-04-06T03:22:48;8.35;;;5.60;;
22837;SDS011;11585;51.450;-0.240;2023-04-06T03:27:59;7.43;;;5.43;;
22837;SDS011;11585;51.450;-0.240;2023-04-06T03:30:24;7.97;;;5.28;;
22837;SDS011;11585;51.450;-0.240;2023-04-06T03:32:51;8.93;;;5.53;;
22837;SDS011;11585;51.450;-0.240;2023-04-06T03:38:02;8.45;;;4.78;;
22837;SDS011;11585;51.450;-0.240;2023-04-06T03:40:28;11.13;;;6.47;;
22837;SDS011;11585;51.450;-0.240;2023-04-06T03:42:54;9.52;;;5.38;;
22837;SDS011;11585;51.450;-0.240;2023-04-06T03:55:25;8.90;;;5.75;;
22837;SDS011;11585;51.450;-0.240;2023-04-06T03:57:51;10.35;;;5.75;;
22837;SDS011;11585;51.450;-0.240;2023-04-06T04:00:16;15.07;;;6.15;;
22837;SDS011;11585;51.450;-0.240;2023-04-06T04:02:42;9.05;;;5.85;;
22837;SDS011;11585;51.450;-0.240;2023-04-06T04:08:30;10.30;;;6.32;;
22837;SDS011;11585;51.450;-0.240;2023-04-06T04:10:55;10.38;;;6.15;;
22837;SDS011;11585;51.450;-0.240;2023-04-06T04:13:21;10.38;;;6.57;;
22837;SDS011;11585;51.450;-0.240;2023-04-06T04:19:08;11.43;;;6.38;;
22837;SDS011;11585;51.450;-0.240;2023-04-06T04:21:41;13.18;;;7.03;;
22837;SDS011;11585;51.450;-0.240;2023-04-06T04:24:10;8.88;;;5.85;;
22837;SDS011;11585;51.450;-0.240;2023-04-06T04:26:37;13.13;;;6.45;;
22837;SDS011;11585;51.450;-0.240;2023-04-06T04:29:03;14.15;;;7.05;;
22837;SDS011;11585;51.450;-0.240;2023-04-06T04:31:29;14.75;;;7.13;;
22837;SDS011;11585;51.450;-0.240;2023-04-06T04:33:55;15.10;;;7.35;;
22837;SDS011;11585;51.450;-0.240;2023-04-06T04:39:06;13.05;;;7.28;;
22837;SDS011;11585;51.450;-0.240;2023-04-06T04:41:32;12.73;;;7.45;;
22837;SDS011;11585;51.450;-0.240;2023-04-06T04:43:58;11.88;;;7.57;;
22837;SDS011;11585;51.450;-0.240;2023-04-06T04:49:46;11.77;;;6.57;;
22837;SDS011;11585;51.450;-0.240;2023-04-06T04:52:11;14.65;;;7.82;;
22837;SDS011;11585;51.450;-0.240;2023-04-06T04:57:59;15.30;;;7.93;;
22837;SDS011;11585;51.450;-0.240;2023-04-06T05:00:25;12.52;;;7.72;;
22837;SDS011;11585;51.450;-0.240;2023-04-06T05:02:50;17.92;;;8.68;;
22837;SDS011;11585;51.450;-0.240;2023-04-06T05:11:42;18.40;;;8.35;;
22837;SDS011;11585;51.450;-0.240;2023-04-06T05:14:08;13.23;;;7.50;;
22837;SDS011;11585;51.450;-0.240;2023-04-06T05:16:34;15.27;;;7.85;;
22837;SDS011;11585;51.450;-0.240;2023-04-06T05:19:00;16.48;;;7.97;;
22837;SDS011;11585;51.450;-0.240;2023-04-06T05:21:26;19.23;;;9.32;;
22837;SDS011;11585;51.450;-0.240;2023-04-06T05:23:53;18.95;;;9.43;;
22837;SDS011;11585;51.450;-0.240;2023-04-06T05:26:19;20.90;;;9.63;;
22837;SDS011;11585;51.450;-0.240;2023-04-06T05:28:45;28.50;;;10.88;;
22837;SDS011;11585;51.450;-0.240;2023-04-06T05:31:10;20.45;;;9.43;;
22837;SDS011;11585;51.450;-0.240;2023-04-06T05:33:36;20.83;;;9.65;;
22837;SDS011;11585;51.450;-0.240;2023-04-06T05:39:24;22.20;;;10.63;;
22837;SDS011;11585;51.450;-0.240;2023-04-06T05:41:49;23.60;;;10.18;;
22837;SDS011;11585;51.450;-0.240;2023-04-06T05:44:15;22.17;;;11.30;;
22837;SDS011;11585;51.450;-0.240;2023-04-06T05:46:41;27.08;;;11.63;;
22837;SDS011;11585;51.450;-0.240;2023-04-06T05:49:06;27.45;;;11.30;;
22837;SDS011;11585;51.450;-0.240;2023-04-06T05:51:32;27.15;;;11.18;;
22837;SDS011;11585;51.450;-0.240;2023-04-06T05:53:57;25.10;;;10.80;;
22837;SDS011;11585;51.450;-0.240;2023-04-06T05:59:28;28.83;;;11.63;;
22837;SDS011;11585;51.450;-0.240;2023-04-06T06:01:55;34.15;;;12.02;;
22837;SDS011;11585;51.450;-0.240;2023-04-06T06:07:25;30.40;;;11.73;;
22837;SDS011;11585;51.450;-0.240;2023-04-06T06:09:51;27.60;;;11.27;;
22837;SDS011;11585;51.450;-0.240;2023-04-06T06:12:17;26.60;;;10.70;;
22837;SDS011;11585;51.450;-0.240;2023-04-06T06:14:44;27.00;;;11.02;;
22837;SDS011;11585;51.450;-0.240;2023-04-06T06:17:10;37.72;;;13.50;;
22837;SDS011;11585;51.450;-0.240;2023-04-06T06:19:36;28.90;;;11.27;;
22837;SDS011;11585;51.450;-0.240;2023-04-06T06:22:01;29.00;;;10.77;;
22837;SDS011;11585;51.450;-0.240;2023-04-06T06:27:49;24.17;;;10.77;;
22837;SDS011;11585;51.450;-0.240;2023-04-06T06:30:15;27.15;;;10.48;;
22837;SDS011;11585;51.450;-0.240;2023-04-06T06:32:41;21.15;;;10.02;;
22837;SDS011;11585;51.450;-0.240;2023-04-06T06:38:29;24.88;;;10.00;;
22837;SDS011;11585;51.450;-0.240;2023-04-06T06:40:55;18.65;;;10.07;;
22837;SDS011;11585;51.450;-0.240;2023-04-06T06:43:20;22.02;;;9.80;;
22837;SDS011;11585;51.450;-0.240;2023-04-06T06:52:12;22.95;;;9.82;;
22837;SDS011;11585;51.450;-0.240;2023-04-06T06:54:40;24.63;;;9.45;;
22837;SDS011;11585;51.450;-0.240;2023-04-06T06:57:05;20.92;;;9.57;;
22837;SDS011;11585;51.450;-0.240;2023-04-06T06:59:31;22.75;;;9.38;;
22837;SDS011;11585;51.450;-0.240;2023-04-06T07:01:56;26.85;;;9.52;;
22837;SDS011;11585;51.450;-0.240;2023-04-06T07:04:24;23.75;;;9.93;;
22837;SDS011;11585;51.450;-0.240;2023-04-06T07:06:50;26.60;;;10.65;;
22837;SDS011;11585;51.450;-0.240;2023-04-06T07:09:17;24.00;;;9.82;;
22837;SDS011;11585;51.450;-0.240;2023-04-06T07:11:43;25.98;;;10.02;;
22837;SDS011;11585;51.450;-0.240;2023-04-06T07:14:09;25.30;;;9.35;;
22837;SDS011;11585;51.450;-0.240;2023-04-06T07:19:58;18.95;;;8.80;;
22837;SDS011;11585;51.450;-0.240;2023-04-06T07:25:45;18.58;;;7.93;;
22837;SDS011;11585;51.450;-0.240;2023-04-06T07:28:11;18.98;;;7.72;;
22837;SDS011;11585;51.450;-0.240;2023-04-06T07:30:37;20.48;;;8.43;;
22837;SDS011;11585;51.450;-0.240;2023-04-06T07:33:02;19.45;;;7.95;;
22837;SDS011;11585;51.450;-0.240;2023-04-06T07:38:50;15.35;;;6.60;;
22837;SDS011;11585;51.450;-0.240;2023-04-06T07:41:16;14.23;;;6.00;;
22837;SDS011;11585;51.450;-0.240;2023-04-06T07:43:44;19.90;;;8.07;;
22837;SDS011;11585;51.450;-0.240;2023-04-06T07:54:48;18.67;;;6.70;;
22837;SDS011;11585;51.450;-0.240;2023-04-06T07:57:14;15.27;;;5.05;;
22837;SDS011;11585;51.450;-0.240;2023-04-06T07:59:40;10.88;;;3.92;;
22837;SDS011;11585;51.450;-0.240;2023-04-06T08:02:06;10.35;;;3.72;;
22837;SDS011;11585;51.450;-0.240;2023-04-06T08:07:35;16.83;;;3.67;;
22837;SDS011;11585;51.450;-0.240;2023-04-06T08:10:01;15.45;;;2.85;;
22837;SDS011;11585;51.450;-0.240;2023-04-06T08:12:27;15.77;;;2.50;;
22837;SDS011;11585;51.450;-0.240;2023-04-06T08:17:37;16.15;;;2.67;;
22837;SDS011;11585;51.450;-0.240;2023-04-06T08:20:03;15.05;;;3.50;;
22837;SDS011;11585;51.450;-0.240;2023-04-06T08:22:29;9.98;;;2.47;;
22837;SDS011;11585;51.450;-0.240;2023-04-06T08:28:19;9.68;;;2.53;;
22837;SDS011;11585;51.450;-0.240;2023-04-06T08:30:46;11.43;;;2.30;;
22837;SDS011;11585;51.450;-0.240;2023-04-06T08:33:12;12.57;;;3.17;;
22837;SDS011;11585;51.450;-0.240;2023-04-06T08:39:00;20.40;;;3.42;;
22837;SDS011;11585;51.450;-0.240;2023-04-06T08:41:27;17.70;;;3.00;;
22837;SDS011;11585;51.450;-0.240;2023-04-06T08:43:56;22.65;;;2.70;;
22837;SDS011;11585;51.450;-0.240;2023-04-06T08:49:45;19.65;;;3.88;;
22837;SDS011;11585;51.450;-0.240;2023-04-06T08:52:11;15.80;;;3.33;;
22837;SDS011;11585;51.450;-0.240;2023-04-06T08:58:06;22.08;;;2.70;;
22837;SDS011;11585;51.450;-0.240;2023-04-06T09:00:33;12.98;;;2.90;;
22837;SDS011;11585;51.450;-0.240;2023-04-06T09:03:04;14.13;;;2.67;;
22837;SDS011;11585;51.450;-0.240;2023-04-06T09:05:31;16.73;;;3.13;;
22837;SDS011;11585;51.450;-0.240;2023-04-06T09:07:57;17.85;;;2.45;;
22837;SDS011;11585;51.450;-0.240;2023-04-06T09:10:22;15.57;;;2.72;;
22837;SDS011;11585;51.450;-0.240;2023-04-06T09:12:50;17.02;;;3.10;;
22837;SDS011;11585;51.450;-0.240;2023-04-06T09:15:20;20.73;;;2.97;;
22837;SDS011;11585;51.450;-0.240;2023-04-06T09:17:46;19.85;;;4.25;;
22837;SDS011;11585;51.450;-0.240;2023-04-06T09:20:12;18.67;;;2.95;;
22837;SDS011;11585;51.450;-0.240;2023-04-06T09:22:38;12.55;;;2.58;;
22837;SDS011;11585;51.450;-0.240;2023-04-06T09:25:08;12.95;;;3.15;;
22837;SDS011;11585;51.450;-0.240;2023-04-06T09:27:36;16.85;;;3.67;;
22837;SDS011;11585;51.450;-0.240;2023-04-06T09:30:04;12.10;;;4.22;;
22837;SDS011;11585;51.450;-0.240;2023-04-06T09:38:37;15.77;;;3.40;;
22837;SDS011;11585;51.450;-0.240;2023-04-06T09:41:03;21.95;;;5.43;;
22837;SDS011;11585;51.450;-0.240;2023-04-06T09:43:29;19.38;;;4.03;;
22837;SDS011;11585;51.450;-0.240;2023-04-06T09:45:55;16.58;;;3.97;;
22837;SDS011;11585;51.450;-0.240;2023-04-06T09:48:25;13.52;;;3.47;;
22837;SDS011;11585;51.450;-0.240;2023-04-06T09:50:55;12.13;;;3.60;;
22837;SDS011;11585;51.450;-0.240;2023-04-06T09:53:27;16.23;;;3.80;;
22837;SDS011;11585;51.450;-0.240;2023-04-06T09:58:45;16.63;;;3.47;;
22837;SDS011;11585;51.450;-0.240;2023-04-06T10:01:15;16.67;;;4.03;;
22837;SDS011;11585;51.450;-0.240;2023-04-06T10:03:53;19.52;;;4.45;;
22837;SDS011;11585;51.450;-0.240;2023-04-06T10:06:27;10.95;;;4.07;;
22837;SDS011;11585;51.450;-0.240;2023-04-06T10:08:58;15.98;;;4.75;;
22837;SDS011;11585;51.450;-0.240;2023-04-06T10:11:26;15.25;;;5.50;;
22837;SDS011;11585;51.450;-0.240;2023-04-06T10:13:53;14.88;;;3.97;;
22837;SDS011;11585;51.450;-0.240;2023-04-06T10:19:47;9.10;;;3.40;;
22837;SDS011;11585;51.450;-0.240;2023-04-06T10:22:22;7.25;;;2.90;;
22837;SDS011;11585;51.450;-0.240;2023-04-06T10:24:54;8.38;;;3.00;;
22837;SDS011;11585;51.450;-0.240;2023-04-06T10:27:29;8.77;;;3.17;;
22837;SDS011;11585;51.450;-0.240;2023-04-06T10:30:03;11.88;;;3.45;;
22837;SDS011;11585;51.450;-0.240;2023-04-06T10:32:34;13.07;;;4.90;;
22837;SDS011;11585;51.450;-0.240;2023-04-06T10:38:33;7.72;;;2.55;;
22837;SDS011;11585;51.450;-0.240;2023-04-06T10:41:06;9.73;;;2.65;;
22837;SDS011;11585;51.450;-0.240;2023-04-06T10:43:33;9.00;;;3.40;;
22837;SDS011;11585;51.450;-0.240;2023-04-06T10:49:24;5.78;;;2.75;;
22837;SDS011;11585;51.450;-0.240;2023-04-06T10:54:21;11.63;;;3.67;;
22837;SDS011;11585;51.450;-0.240;2023-04-06T10:56:50;22.08;;;4.68;;
22837;SDS011;11585;51.450;-0.240;2023-04-06T10:59:19;11.20;;;3.55;;
22837;SDS011;11585;51.450;-0.240;2023-04-06T11:01:46;7.18;;;3.45;;
22837;SDS011;11585;51.450;-0.240;2023-04-06T11:04:15;12.48;;;3.65;;
22837;SDS011;11585;51.450;-0.240;2023-04-06T11:06:48;8.65;;;3.47;;
22837;SDS011;11585;51.450;-0.240;2023-04-06T11:09:27;7.30;;;2.40;;
22837;SDS011;11585;51.450;-0.240;2023-04-06T11:11:54;6.72;;;2.58;;
22837;SDS011;11585;51.450;-0.240;2023-04-06T11:17:27;13.60;;;4.55;;
22837;SDS011;11585;51.450;-0.240;2023-04-06T11:19:56;16.17;;;3.95;;
22837;SDS011;11585;51.450;-0.240;2023-04-06T11:22:22;12.73;;;3.28;;
22837;SDS011;11585;51.450;-0.240;2023-04-06T11:27:38;6.97;;;2.63;;
22837;SDS011;11585;51.450;-0.240;2023-04-06T11:30:04;14.05;;;3.30;;
22837;SDS011;11585;51.450;-0.240;2023-04-06T11:32:39;27.52;;;7.65;;
22837;SDS011;11585;51.450;-0.240;2023-04-06T11:35:07;7.68;;;3.28;;
22837;SDS011;11585;51.450;-0.240;2023-04-06T11:37:36;8.95;;;3.00;;
22837;SDS011;11585;51.450;-0.240;2023-04-06T11:40:02;5.07;;;2.40;;
22837;SDS011;11585;51.450;-0.240;2023-04-06T11:42:28;7.53;;;2.38;;
22837;SDS011;11585;51.450;-0.240;2023-04-06T11:44:55;9.35;;;2.17;;
22837;SDS011;11585;51.450;-0.240;2023-04-06T11:47:35;7.75;;;2.10;;
22837;SDS011;11585;51.450;-0.240;2023-04-06T11:50:09;6.60;;;3.15;;
22837;SDS011;11585;51.450;-0.240;2023-04-06T11:52:36;7.80;;;2.30;;
22837;SDS011;11585;51.450;-0.240;2023-04-06T11:55:16;5.30;;;2.08;;
22837;SDS011;11585;51.450;-0.240;2023-04-06T11:57:43;8.98;;;4.32;;
22837;SDS011;11585;51.450;-0.240;2023-04-06T12:00:10;4.03;;;2.22;;
22837;SDS011;11585;51.450;-0.240;2023-04-06T12:02:39;16.85;;;4.50;;
22837;SDS011;11585;51.450;-0.240;2023-04-06T12:05:07;22.13;;;7.15;;
22837;SDS011;11585;51.450;-0.240;2023-04-06T12:07:33;9.37;;;4.20;;
22837;SDS011;11585;51.450;-0.240;2023-04-06T12:10:00;16.33;;;4.70;;
22837;SDS011;11585;51.450;-0.240;2023-04-06T12:12:27;6.32;;;2.58;;
22837;SDS011;11585;51.450;-0.240;2023-04-06T12:17:56;8.45;;;1.90;;
22837;SDS011;11585;51.450;-0.240;2023-04-06T12:20:22;6.63;;;1.98;;
22837;SDS011;11585;51.450;-0.240;2023-04-06T12:22:48;14.55;;;4.00;;
22837;SDS011;11585;51.450;-0.240;2023-04-06T12:28:22;4.43;;;1.60;;
22837;SDS011;11585;51.450;-0.240;2023-04-06T12:30:51;13.85;;;3.47;;
22837;SDS011;11585;51.450;-0.240;2023-04-06T12:33:17;13.63;;;6.07;;
22837;SDS011;11585;51.450;-0.240;2023-04-06T12:35:44;15.13;;;4.03;;
22837;SDS011;11585;51.450;-0.240;2023-04-06T12:38:10;10.75;;;2.40;;
22837;SDS011;11585;51.450;-0.240;2023-04-06T12:40:36;10.80;;;2.38;;
22837;SDS011;11585;51.450;-0.240;2023-04-06T12:43:05;10.32;;;2.97;;
22837;SDS011;11585;51.450;-0.240;2023-04-06T12:48:19;5.28;;;1.60;;
22837;SDS011;11585;51.450;-0.240;2023-04-06T12:50:53;13.93;;;2.50;;
22837;SDS011;11585;51.450;-0.240;2023-04-06T12:53:29;9.95;;;2.55;;
22837;SDS011;11585;51.450;-0.240;2023-04-06T12:59:17;9.95;;;3.30;;
22837;SDS011;11585;51.450;-0.240;2023-04-06T13:01:42;8.15;;;2.30;;
22837;SDS011;11585;51.450;-0.240;2023-04-06T13:04:09;4.30;;;1.80;;
22837;SDS011;11585;51.450;-0.240;2023-04-06T13:06:34;8.48;;;2.80;;
22837;SDS011;11585;51.450;-0.240;2023-04-06T13:09:00;3.03;;;1.50;;
22837;SDS011;11585;51.450;-0.240;2023-04-06T13:11:26;6.10;;;1.10;;
22837;SDS011;11585;51.450;-0.240;2023-04-06T13:13:52;18.10;;;5.55;;
22837;SDS011;11585;51.450;-0.240;2023-04-06T13:19:39;27.73;;;9.35;;
22837;SDS011;11585;51.450;-0.240;2023-04-06T13:22:05;8.25;;;2.63;;
22837;SDS011;11585;51.450;-0.240;2023-04-06T13:24:32;7.18;;;2.20;;
22837;SDS011;11585;51.450;-0.240;2023-04-06T13:26:58;4.55;;;1.58;;
22837;SDS011;11585;51.450;-0.240;2023-04-06T13:29:25;8.52;;;2.80;;
22837;SDS011;11585;51.450;-0.240;2023-04-06T13:31:51;4.45;;;2.15;;
22837;SDS011;11585;51.450;-0.240;2023-04-06T13:34:16;16.33;;;4.18;;
22837;SDS011;11585;51.450;-0.240;2023-04-06T13:36:42;9.10;;;2.17;;
22837;SDS011;11585;51.450;-0.240;2023-04-06T13:39:08;13.02;;;3.58;;
22837;SDS011;11585;51.450;-0.240;2023-04-06T13:41:33;12.32;;;3.22;;
22837;SDS011;11585;51.450;-0.240;2023-04-06T13:43:59;7.22;;;2.60;;
22837;SDS011;11585;51.450;-0.240;2023-04-06T13:49:47;13.20;;;4.20;;
22837;SDS011;11585;51.450;-0.240;2023-04-06T13:52:12;9.68;;;2.63;;
22837;SDS011;11585;51.450;-0.240;2023-04-06T13:58:00;10.25;;;3.50;;
22837;SDS011;11585;51.450;-0.240;2023-04-06T14:03:31;5.78;;;1.95;;
22837;SDS011;11585;51.450;-0.240;2023-04-06T14:09:04;13.45;;;3.78;;
22837;SDS011;11585;51.450;-0.240;2023-04-06T14:11:30;13.43;;;2.85;;
22837;SDS011;11585;51.450;-0.240;2023-04-06T14:13:56;8.82;;;3.20;;
22837;SDS011;11585;51.450;-0.240;2023-04-06T14:16:23;10.13;;;3.03;;
22837;SDS011;11585;51.450;-0.240;2023-04-06T14:18:48;6.38;;;2.10;;
22837;SDS011;11585;51.450;-0.240;2023-04-06T14:21:15;9.25;;;3.17;;
22837;SDS011;11585;51.450;-0.240;2023-04-06T14:23:41;11.25;;;3.53;;
22837;SDS011;11585;51.450;-0.240;2023-04-06T14:28:52;5.68;;;1.88;;
22837;SDS011;11585;51.450;-0.240;2023-04-06T14:31:18;5.30;;;1.65;;
22837;SDS011;11585;51.450;-0.240;2023-04-06T14:33:43;5.90;;;1.67;;
22837;SDS011;11585;51.450;-0.240;2023-04-06T14:39:01;1.38;;;1.08;;
22837;SDS011;11585;51.450;-0.240;2023-04-06T14:41:31;2.67;;;1.40;;
22837;SDS011;11585;51.450;-0.240;2023-04-06T14:43:57;2.25;;;1.30;;
22837;SDS011;11585;51.450;-0.240;2023-04-06T14:46:25;1.73;;;1.00;;
22837;SDS011;11585;51.450;-0.240;2023-04-06T14:48:53;4.32;;;1.15;;
22837;SDS011;11585;51.450;-0.240;2023-04-06T14:51:21;6.40;;;1.65;;
22837;SDS011;11585;51.450;-0.240;2023-04-06T14:53:46;5.15;;;1.42;;
22837;SDS011;11585;51.450;-0.240;2023-04-06T14:58:59;6.15;;;2.03;;
22837;SDS011;11585;51.450;-0.240;2023-04-06T15:01:27;5.63;;;2.10;;
22837;SDS011;11585;51.450;-0.240;2023-04-06T15:03:53;5.03;;;1.80;;
22837;SDS011;11585;51.450;-0.240;2023-04-06T15:09:24;6.97;;;2.40;;
22837;SDS011;11585;51.450;-0.240;2023-04-06T15:11:50;3.97;;;1.52;;
22837;SDS011;11585;51.450;-0.240;2023-04-06T15:14:15;8.20;;;1.77;;
22837;SDS011;11585;51.450;-0.240;2023-04-06T15:16:41;5.35;;;1.85;;
22837;SDS011;11585;51.450;-0.240;2023-04-06T15:19:07;2.00;;;1.48;;
22837;SDS011;11585;51.450;-0.240;2023-04-06T15:21:33;5.88;;;1.70;;
22837;SDS011;11585;51.450;-0.240;2023-04-06T15:23:59;4.00;;;1.58;;
22837;SDS011;11585;51.450;-0.240;2023-04-06T15:33:00;5.20;;;1.83;;
22837;SDS011;11585;51.450;-0.240;2023-04-06T15:38:16;3.90;;;1.65;;
22837;SDS011;11585;51.450;-0.240;2023-04-06T15:40:45;9.70;;;2.28;;
22837;SDS011;11585;51.450;-0.240;2023-04-06T15:43:12;2.63;;;1.48;;
22837;SDS011;11585;51.450;-0.240;2023-04-06T15:49:00;7.00;;;2.30;;
22837;SDS011;11585;51.450;-0.240;2023-04-06T15:51:26;10.55;;;3.55;;
22837;SDS011;11585;51.450;-0.240;2023-04-06T15:53:54;12.70;;;4.15;;
22837;SDS011;11585;51.450;-0.240;2023-04-06T16:02:27;6.75;;;2.55;;
22837;SDS011;11585;51.450;-0.240;2023-04-06T16:07:56;2.35;;;1.13;;
22837;SDS011;11585;51.450;-0.240;2023-04-06T16:10:21;4.25;;;0.95;;
22837;SDS011;11585;51.450;-0.240;2023-04-06T16:12:47;5.78;;;1.55;;
22837;SDS011;11585;51.450;-0.240;2023-04-06T16:18:03;6.32;;;2.10;;
22837;SDS011;11585;51.450;-0.240;2023-04-06T16:20:29;4.18;;;1.27;;
22837;SDS011;11585;51.450;-0.240;2023-04-06T16:22:56;15.02;;;3.40;;
22837;SDS011;11585;51.450;-0.240;2023-04-06T16:28:44;1.27;;;0.80;;
22837;SDS011;11585;51.450;-0.240;2023-04-06T16:31:21;1.98;;;1.00;;
22837;SDS011;11585;51.450;-0.240;2023-04-06T16:33:51;3.08;;;1.02;;
22837;SDS011;11585;51.450;-0.240;2023-04-06T16:39:39;6.28;;;2.13;;
22837;SDS011;11585;51.450;-0.240;2023-04-06T16:42:08;9.40;;;1.23;;
22837;SDS011;11585;51.450;-0.240;2023-04-06T16:44:34;7.47;;;2.00;;
22837;SDS011;11585;51.450;-0.240;2023-04-06T16:47:00;3.65;;;1.35;;
22837;SDS011;11585;51.450;-0.240;2023-04-06T16:49:26;7.40;;;1.95;;
22837;SDS011;11585;51.450;-0.240;2023-04-06T16:51:51;3.80;;;1.88;;
22837;SDS011;11585;51.450;-0.240;2023-04-06T16:54:19;5.22;;;1.75;;
22837;SDS011;11585;51.450;-0.240;2023-04-06T16:56:45;5.18;;;2.03;;
22837;SDS011;11585;51.450;-0.240;2023-04-06T16:59:11;7.78;;;1.80;;
22837;SDS011;11585;51.450;-0.240;2023-04-06T17:01:37;6.93;;;2.50;;
22837;SDS011;11585;51.450;-0.240;2023-04-06T17:04:02;7.05;;;1.95;;
22837;SDS011;11585;51.450;-0.240;2023-04-06T17:09:15;5.22;;;2.47;;
22837;SDS011;11585;51.450;-0.240;2023-04-06T17:11:40;7.53;;;2.38;;
22837;SDS011;11585;51.450;-0.240;2023-04-06T17:14:07;11.10;;;3.03;;
22837;SDS011;11585;51.450;-0.240;2023-04-06T17:19:55;6.63;;;2.10;;
22837;SDS011;11585;51.450;-0.240;2023-04-06T17:22:21;11.13;;;3.22;;
22837;SDS011;11585;51.450;-0.240;2023-04-06T17:24:48;5.57;;;2.20;;
22837;SDS011;11585;51.450;-0.240;2023-04-06T17:27:13;5.40;;;2.00;;
22837;SDS011;11585;51.450;-0.240;2023-04-06T17:29:39;5.00;;;2.03;;
22837;SDS011;11585;51.450;-0.240;2023-04-06T17:32:05;4.53;;;1.73;;
22837;SDS011;11585;51.450;-0.240;2023-04-06T17:37:35;4.43;;;1.67;;
22837;SDS011;11585;51.450;-0.240;2023-04-06T17:40:02;8.57;;;2.53;;
22837;SDS011;11585;51.450;-0.240;2023-04-06T17:42:30;4.70;;;1.87;;
22837;SDS011;11585;51.450;-0.240;2023-04-06T17:48:01;5.32;;;2.22;;
22837;SDS011;11585;51.450;-0.240;2023-04-06T17:50:27;4.65;;;1.70;;
22837;SDS011;11585;51.450;-0.240;2023-04-06T17:52:52;5.22;;;1.90;;
22837;SDS011;11585;51.450;-0.240;2023-04-06T17:58:40;4.95;;;1.67;;
22837;SDS011;11585;51.450;-0.240;2023-04-06T18:01:06;8.50;;;3.22;;
22837;SDS011;11585;51.450;-0.240;2023-04-06T18:03:32;9.73;;;2.53;;
22837;SDS011;11585;51.450;-0.240;2023-04-06T18:06:12;7.80;;;2.00;;
22837;SDS011;11585;51.450;-0.240;2023-04-06T18:08:40;6.53;;;1.90;;
22837;SDS011;11585;51.450;-0.240;2023-04-06T18:11:06;3.92;;;1.65;;
22837;SDS011;11585;51.450;-0.240;2023-04-06T18:13:40;8.32;;;2.47;;
22837;SDS011;11585;51.450;-0.240;2023-04-06T18:19:29;9.55;;;2.83;;
22837;SDS011;11585;51.450;-0.240;2023-04-06T18:21:55;6.40;;;2.00;;
22837;SDS011;11585;51.450;-0.240;2023-04-06T18:27:26;4.93;;;2.20;;
22837;SDS011;11585;51.450;-0.240;2023-04-06T18:29:52;7.35;;;2.70;;
22837;SDS011;11585;51.450;-0.240;2023-04-06T18:32:18;4.65;;;2.30;;
22837;SDS011;11585;51.450;-0.240;2023-04-06T18:41:14;7.95;;;2.35;;
22837;SDS011;11585;51.450;-0.240;2023-04-06T18:43:40;6.28;;;2.50;;
22837;SDS011;11585;51.450;-0.240;2023-04-06T18:52:50;9.93;;;3.58;;